Weather at Montreal / Les Cèdres Airport

Public forecast

Using degrees Celsius for public forecast. Weather courtesy of forecast.io.

Closest aviation weather report (METAR) to Montreal / Les Cèdres Airport

Closest report is Montreal / Pierre Elliott Trudeau International Airport, 16.0 nm (29.6 km) ENE. Retrieved 2021/05/12 05:00 UTC (16 minutes ago):

CYUL 120500Z 27008KT 15SM FEW010 SCT027 BKN090 07/05 A2996 RMK SF1SC3AC4 SF TR SLP147

Closest aviation forecast (TAF) to Montreal / Les Cèdres Airport

Closest forecast is Montreal / Pierre Elliott Trudeau International Airport, 16.0 nm (29.6 km) ENE. Retrieved 2021-05-12 03:42 UTC (2 hours ago):

TAF CYUL 120238Z 1203/1224 26010G20KT P6SM BKN040 OVC060 TEMPO 1203/1205 P6SM -SHRA BKN020 OVC040 FM120500 27010KT P6SM SCT020 BKN050 TEMPO 1205/1207 BKN020 BKN040 FM121000 32008KT P6SM FEW040 FEW200 FM121400 31012KT P6SM FEW040 FM121800 30012G22KT P6SM SCT060 FM122300 31010KT P6SM FEW060 RMK NXT FCST BY 120600Z